createdAt,value
2023-05-03T00:00:37.466Z,6.79
2023-05-03T00:01:37.512Z,6.79
2023-05-03T00:02:37.655Z,6.75
2023-05-03T00:03:37.418Z,6.72
2023-05-03T00:04:37.442Z,6.70
2023-05-03T00:05:37.576Z,6.67
2023-05-03T00:06:37.447Z,6.64
2023-05-03T00:07:37.353Z,6.63
2023-05-03T00:08:37.352Z,6.62
2023-05-03T00:09:37.336Z,6.60
2023-05-03T00:10:37.359Z,6.56
2023-05-03T00:11:37.295Z,6.54
2023-05-03T00:12:37.295Z,6.51
2023-05-03T00:13:37.278Z,6.51
2023-05-03T00:14:37.310Z,6.46
2023-05-03T00:15:37.276Z,6.45
2023-05-03T00:16:37.308Z,6.41
2023-05-03T00:17:37.272Z,6.39
2023-05-03T00:18:37.221Z,6.36
2023-05-03T00:19:37.220Z,6.33
2023-05-03T00:20:37.189Z,6.30
2023-05-03T00:21:37.177Z,6.28
2023-05-03T00:22:37.162Z,6.26
2023-05-03T00:23:37.149Z,6.24
2023-05-03T00:24:37.150Z,6.19
2023-05-03T00:25:37.140Z,6.19
2023-05-03T00:26:37.117Z,6.16
2023-05-03T00:27:37.105Z,6.12
2023-05-03T00:28:37.122Z,6.12
2023-05-03T00:29:37.084Z,6.09
2023-05-03T00:30:37.067Z,6.08
2023-05-03T00:31:37.064Z,6.07
2023-05-03T00:32:37.078Z,6.02
2023-05-03T00:33:37.017Z,6.01
2023-05-03T00:34:37.033Z,5.97
2023-05-03T00:35:36.998Z,5.94
2023-05-03T00:36:37.250Z,5.93
2023-05-03T00:37:36.972Z,5.90
2023-05-03T00:38:36.966Z,5.87
2023-05-03T00:39:37.000Z,5.86
2023-05-03T00:40:36.945Z,5.83
2023-05-03T00:41:36.926Z,5.82
2023-05-03T00:42:36.959Z,5.80
2023-05-03T00:43:36.894Z,5.76
2023-05-03T00:44:36.897Z,5.73
2023-05-03T00:45:36.904Z,5.72
2023-05-03T00:46:36.872Z,5.71
2023-05-03T00:47:37.062Z,5.69
2023-05-03T00:48:36.832Z,5.66
2023-05-03T00:49:36.827Z,5.64
2023-05-03T00:50:36.816Z,5.61
2023-05-03T00:51:36.789Z,5.61
2023-05-03T00:52:36.777Z,5.59
2023-05-03T00:53:36.783Z,5.57
2023-05-03T00:54:36.757Z,5.54
2023-05-03T00:55:36.744Z,5.51
2023-05-03T00:56:47.896Z,5.50
2023-05-03T00:57:37.707Z,5.47
2023-05-03T00:58:36.718Z,5.44
2023-05-03T00:59:36.682Z,5.43
2023-05-03T01:00:36.678Z,5.39
2023-05-03T01:01:36.707Z,5.38
2023-05-03T01:02:36.791Z,5.33
2023-05-03T01:03:36.754Z,5.33
2023-05-03T01:04:36.622Z,5.30
2023-05-03T01:05:36.614Z,5.29
2023-05-03T01:06:36.648Z,5.28
2023-05-03T01:07:36.590Z,5.26
2023-05-03T01:08:36.582Z,5.23
2023-05-03T01:09:36.560Z,5.21
2023-05-03T01:10:36.655Z,5.15
2023-05-03T01:11:36.531Z,5.12
2023-05-03T01:12:36.525Z,5.12
2023-05-03T01:13:36.517Z,5.10
2023-05-03T01:14:36.502Z,5.07
2023-05-03T01:15:36.502Z,5.07
2023-05-03T01:16:36.579Z,5.04
2023-05-03T01:17:36.499Z,5.02
2023-05-03T01:18:36.464Z,5.02
2023-05-03T01:19:36.469Z,4.97
2023-05-03T01:20:36.420Z,4.96
2023-05-03T01:21:36.422Z,4.93
2023-05-03T01:22:36.401Z,4.90
2023-05-03T01:23:36.404Z,4.89
2023-05-03T01:24:36.370Z,4.87
2023-05-03T01:25:36.401Z,4.86
2023-05-03T01:26:36.391Z,4.84
2023-05-03T01:27:36.326Z,4.80
2023-05-03T01:28:36.330Z,4.78
2023-05-03T01:29:36.300Z,4.77
2023-05-03T01:30:36.317Z,4.74
2023-05-03T01:31:36.311Z,4.73
2023-05-03T01:32:36.288Z,4.68
2023-05-03T01:33:36.273Z,4.68
2023-05-03T01:34:36.243Z,4.63
2023-05-03T01:35:36.231Z,4.63
2023-05-03T01:36:36.213Z,4.63
2023-05-03T01:37:36.206Z,4.60
2023-05-03T01:38:36.231Z,4.59
2023-05-03T01:39:36.189Z,4.56
2023-05-03T01:40:36.170Z,4.53
2023-05-03T01:41:36.164Z,4.53
2023-05-03T01:42:36.152Z,4.50
2023-05-03T01:43:36.150Z,4.49
2023-05-03T01:44:36.105Z,4.49
2023-05-03T01:45:36.148Z,4.45
2023-05-03T01:46:36.077Z,4.42
2023-05-03T01:47:36.103Z,4.42
2023-05-03T01:48:36.075Z,4.40
2023-05-03T01:49:36.036Z,4.38
2023-05-03T01:50:36.029Z,4.37
2023-05-03T01:51:36.035Z,4.35
2023-05-03T01:52:35.997Z,4.32
2023-05-03T01:53:36.009Z,4.32
2023-05-03T01:54:35.982Z,4.30
2023-05-03T01:55:35.973Z,4.28
2023-05-03T01:56:35.951Z,4.24
2023-05-03T01:57:35.951Z,4.24
2023-05-03T01:58:35.949Z,4.22
2023-05-03T01:59:35.916Z,4.17
2023-05-03T02:00:35.915Z,4.17
2023-05-03T02:01:35.945Z,4.16
2023-05-03T02:02:35.915Z,4.14
2023-05-03T02:03:35.891Z,4.14
2023-05-03T02:04:35.889Z,4.12
2023-05-03T02:05:35.842Z,4.10
2023-05-03T02:06:35.886Z,4.08
2023-05-03T02:07:35.821Z,4.06
2023-05-03T02:08:35.828Z,4.05
2023-05-03T02:09:35.792Z,4.05
2023-05-03T02:10:35.795Z,4.02
2023-05-03T02:11:35.765Z,4.01
2023-05-03T02:12:35.753Z,3.99
2023-05-03T02:13:35.753Z,3.98
2023-05-03T02:14:35.741Z,3.95
2023-05-03T02:15:35.706Z,3.95
2023-05-03T02:16:35.788Z,3.92
2023-05-03T02:17:35.698Z,3.91
2023-05-03T02:18:35.699Z,3.87
2023-05-03T02:19:35.666Z,3.88
2023-05-03T02:20:35.639Z,3.87
2023-05-03T02:21:35.630Z,3.84
2023-05-03T02:22:35.626Z,3.83
2023-05-03T02:23:35.629Z,3.81
2023-05-03T02:24:35.613Z,3.80
2023-05-03T02:25:35.587Z,3.78
2023-05-03T02:26:35.594Z,3.76
2023-05-03T02:27:35.567Z,3.74
2023-05-03T02:28:35.555Z,3.73
2023-05-03T02:29:35.538Z,3.70
2023-05-03T02:30:35.569Z,3.73
2023-05-03T02:31:35.655Z,3.69
2023-05-03T02:32:35.515Z,3.66
2023-05-03T02:33:35.500Z,3.65
2023-05-03T02:34:35.487Z,3.63
2023-05-03T02:35:35.457Z,3.62
2023-05-03T02:36:36.797Z,3.59
2023-05-03T02:37:35.440Z,3.56
2023-05-03T02:38:35.475Z,3.53
2023-05-03T02:39:35.438Z,3.55
2023-05-03T02:40:35.406Z,3.51
2023-05-03T02:41:35.371Z,3.51
2023-05-03T02:42:35.375Z,3.50
2023-05-03T02:43:35.378Z,3.47
2023-05-03T02:44:35.345Z,3.47
2023-05-03T02:45:35.374Z,3.45
2023-05-03T02:46:35.339Z,3.42
2023-05-03T02:47:35.343Z,3.41
2023-05-03T02:48:35.308Z,3.37
2023-05-03T02:49:35.282Z,3.37
2023-05-03T02:50:35.258Z,3.36
2023-05-03T02:51:35.261Z,3.34
2023-05-03T02:52:35.264Z,3.32
2023-05-03T02:53:35.249Z,3.31
2023-05-03T02:54:35.205Z,3.31
2023-05-03T02:55:35.214Z,3.28
2023-05-03T02:56:35.197Z,3.26
2023-05-03T02:57:35.187Z,3.23
2023-05-03T02:58:35.180Z,3.23
2023-05-03T02:59:35.166Z,3.21
2023-05-03T03:00:35.138Z,3.18
2023-05-03T03:01:35.168Z,3.18
2023-05-03T03:02:35.215Z,3.16
2023-05-03T03:03:35.339Z,3.13
2023-05-03T03:04:35.131Z,3.11
2023-05-03T03:05:35.129Z,3.10
2023-05-03T03:06:35.125Z,3.08
2023-05-03T03:07:35.055Z,3.08
2023-05-03T03:08:35.054Z,3.05
2023-05-03T03:09:35.034Z,3.05
2023-05-03T03:10:35.012Z,3.03
2023-05-03T03:11:35.021Z,3.03
2023-05-03T03:12:34.996Z,3.01
2023-05-03T03:13:35.022Z,3.01
2023-05-03T03:14:34.953Z,2.97
2023-05-03T03:15:34.958Z,2.98
2023-05-03T03:16:35.065Z,2.95
2023-05-03T03:17:35.000Z,2.95
2023-05-03T03:18:34.923Z,2.93
2023-05-03T03:19:34.906Z,2.93
2023-05-03T03:20:34.893Z,2.90
2023-05-03T03:21:34.883Z,2.90
2023-05-03T03:22:34.864Z,2.87
2023-05-03T03:23:34.886Z,2.87
2023-05-03T03:24:34.845Z,2.87
2023-05-03T03:25:34.831Z,2.85
2023-05-03T03:26:34.817Z,2.83
2023-05-03T03:27:35.263Z,2.82
2023-05-03T03:28:34.811Z,2.83
2023-05-03T03:29:34.776Z,2.80
2023-05-03T03:30:34.787Z,2.79
2023-05-03T03:31:34.792Z,2.77
2023-05-03T03:32:34.784Z,2.75
2023-05-03T03:33:34.757Z,2.74
2023-05-03T03:34:34.721Z,2.71
2023-05-03T03:35:34.715Z,2.72
2023-05-03T03:36:34.695Z,2.71
2023-05-03T03:37:34.692Z,2.69
2023-05-03T03:38:34.693Z,2.68
2023-05-03T03:39:34.667Z,2.67
2023-05-03T03:40:34.672Z,2.67
2023-05-03T03:41:34.645Z,2.65
2023-05-03T03:42:34.610Z,2.65
2023-05-03T03:43:34.627Z,2.64
2023-05-03T03:44:34.602Z,2.62
2023-05-03T03:45:34.603Z,2.61
2023-05-03T03:46:34.598Z,2.61
2023-05-03T03:47:34.582Z,2.61
2023-05-03T03:48:34.560Z,2.57
2023-05-03T03:49:34.541Z,2.60
2023-05-03T03:50:34.521Z,2.56
2023-05-03T03:51:34.513Z,2.56
2023-05-03T03:52:34.480Z,2.56
2023-05-03T03:53:34.486Z,2.56
2023-05-03T03:54:34.461Z,2.56
2023-05-03T03:55:34.454Z,2.54
2023-05-03T03:56:34.447Z,2.53
2023-05-03T03:57:34.440Z,2.53
2023-05-03T03:58:34.426Z,2.51
2023-05-03T03:59:34.401Z,2.51
2023-05-03T04:00:34.408Z,2.51
2023-05-03T04:01:34.372Z,2.53
2023-05-03T04:02:34.416Z,2.51
2023-05-03T04:03:34.525Z,2.53
2023-05-03T04:04:34.490Z,2.51
2023-05-03T04:05:34.366Z,2.53
2023-05-03T04:06:34.335Z,2.53
2023-05-03T04:07:34.298Z,2.53
2023-05-03T04:08:34.296Z,2.51
2023-05-03T04:09:34.273Z,2.54
2023-05-03T04:10:34.268Z,2.53
2023-05-03T04:11:34.262Z,2.53
2023-05-03T04:12:34.244Z,2.54
2023-05-03T04:13:34.234Z,2.54
2023-05-03T04:14:34.202Z,2.56
2023-05-03T04:15:34.223Z,2.54
2023-05-03T04:16:34.223Z,2.56
2023-05-03T04:17:34.202Z,2.56
2023-05-03T04:18:34.171Z,2.56
2023-05-03T04:19:34.150Z,2.57
2023-05-03T04:20:34.150Z,2.56
2023-05-03T04:21:34.112Z,2.57
2023-05-03T04:22:34.121Z,2.56
2023-05-03T04:23:34.114Z,2.56
2023-05-03T04:24:34.097Z,2.56
2023-05-03T04:25:34.083Z,2.57
2023-05-03T04:26:34.051Z,2.57
2023-05-03T04:27:34.039Z,2.57
2023-05-03T04:28:34.053Z,2.56
2023-05-03T04:29:34.044Z,2.60
2023-05-03T04:30:34.040Z,2.57
2023-05-03T04:31:33.992Z,2.60
2023-05-03T04:32:33.992Z,2.60
2023-05-03T04:33:34.008Z,2.60
2023-05-03T04:34:33.962Z,2.57
2023-05-03T04:35:33.940Z,2.60
2023-05-03T04:36:33.945Z,2.60
2023-05-03T04:37:33.910Z,2.60
2023-05-03T04:38:33.945Z,2.57
2023-05-03T04:39:33.891Z,2.60
2023-05-03T04:40:33.874Z,2.57
2023-05-03T04:41:33.871Z,2.56
2023-05-03T04:42:33.846Z,2.57
2023-05-03T04:43:33.870Z,2.60
2023-05-03T04:44:33.825Z,2.60
2023-05-03T04:45:33.827Z,2.60
2023-05-03T04:46:33.854Z,2.61
2023-05-03T04:47:33.883Z,2.61
2023-05-03T04:48:33.779Z,2.60
2023-05-03T04:49:33.753Z,2.61
2023-05-03T04:50:33.753Z,2.61
2023-05-03T04:51:33.726Z,2.60
2023-05-03T04:52:33.715Z,2.60
2023-05-03T04:53:33.723Z,2.61
2023-05-03T04:54:33.686Z,2.61
2023-05-03T04:55:33.676Z,2.61
2023-05-03T04:56:33.663Z,2.62
2023-05-03T04:57:33.658Z,2.64
2023-05-03T04:58:33.649Z,2.65
2023-05-03T04:59:33.625Z,2.65
2023-05-03T05:00:33.608Z,2.65
2023-05-03T05:01:33.674Z,2.67
2023-05-03T05:02:33.657Z,2.67
2023-05-03T05:03:33.748Z,2.69
2023-05-03T05:04:33.555Z,2.68
2023-05-03T05:05:33.554Z,2.69
2023-05-03T05:06:33.636Z,2.72
2023-05-03T05:07:33.532Z,2.69
2023-05-03T05:08:33.535Z,2.69
2023-05-03T05:09:33.509Z,2.72
2023-05-03T05:10:33.490Z,2.74
2023-05-03T05:11:33.484Z,2.74
2023-05-03T05:12:33.457Z,2.75
2023-05-03T05:13:33.468Z,2.79
2023-05-03T05:14:33.451Z,2.80
2023-05-03T05:15:33.448Z,2.82
2023-05-03T05:16:33.506Z,2.85
2023-05-03T05:17:33.477Z,2.86
2023-05-03T05:18:33.419Z,2.89
2023-05-03T05:19:33.385Z,2.93
2023-05-03T05:20:33.381Z,2.95
2023-05-03T05:21:33.343Z,2.98
2023-05-03T05:22:33.332Z,3.01
2023-05-03T05:23:33.407Z,3.07
2023-05-03T05:24:33.303Z,3.14
2023-05-03T05:25:33.469Z,3.18
2023-05-03T05:26:33.269Z,3.23
2023-05-03T05:27:33.370Z,3.28
2023-05-03T05:28:33.310Z,3.28
2023-05-03T05:29:33.254Z,3.31
2023-05-03T05:30:33.396Z,3.36
2023-05-03T05:31:33.269Z,3.41
2023-05-03T05:32:33.296Z,3.48
2023-05-03T05:33:33.320Z,3.56
2023-05-03T05:34:42.173Z,3.62
2023-05-03T05:35:34.198Z,3.65
2023-05-03T05:36:33.157Z,3.68
2023-05-03T05:37:33.166Z,3.69
2023-05-03T05:38:33.134Z,3.77
2023-05-03T05:39:33.131Z,3.81
2023-05-03T05:40:33.134Z,3.87
2023-05-03T05:41:33.102Z,3.92
2023-05-03T05:42:33.078Z,3.96
2023-05-03T05:43:33.096Z,3.99
2023-05-03T05:44:33.062Z,4.04
2023-05-03T05:45:33.166Z,4.05
2023-05-03T05:46:33.076Z,4.08
2023-05-03T05:47:33.045Z,4.10
2023-05-03T05:48:33.030Z,4.14
2023-05-03T05:49:32.994Z,4.19
2023-05-03T05:50:32.980Z,4.22
2023-05-03T05:51:32.974Z,4.24
2023-05-03T05:52:33.028Z,4.30
2023-05-03T05:53:32.959Z,4.38
2023-05-03T05:54:32.949Z,4.45
2023-05-03T05:55:32.913Z,4.56
2023-05-03T05:56:32.895Z,4.68
2023-05-03T05:57:32.891Z,4.74
2023-05-03T05:58:32.882Z,4.84
2023-05-03T05:59:32.863Z,4.93
2023-05-03T06:00:32.844Z,5.02
2023-05-03T06:01:32.824Z,5.15
2023-05-03T06:02:32.892Z,5.26
2023-05-03T06:03:32.820Z,5.38
2023-05-03T06:04:32.834Z,5.50
2023-05-03T06:05:32.850Z,5.65
2023-05-03T06:06:32.795Z,5.82
2023-05-03T06:07:32.759Z,5.97
2023-05-03T06:08:32.761Z,6.07
2023-05-03T06:09:32.733Z,6.16
2023-05-03T06:10:32.714Z,6.30
2023-05-03T06:11:32.722Z,6.42
2023-05-03T06:12:32.701Z,6.60
2023-05-03T06:13:32.702Z,6.81
2023-05-03T06:14:32.678Z,7.00
2023-05-03T06:15:32.649Z,7.25
2023-05-03T06:16:32.681Z,7.43
2023-05-03T06:17:32.696Z,7.57
2023-05-03T06:18:32.637Z,7.66
2023-05-03T06:19:32.607Z,7.76
2023-05-03T06:20:32.615Z,7.80
2023-05-03T06:21:32.616Z,7.85
2023-05-03T06:22:32.568Z,7.97
2023-05-03T06:23:32.559Z,8.09
2023-05-03T06:24:32.568Z,8.19
2023-05-03T06:25:32.530Z,8.26
2023-05-03T06:26:32.531Z,8.31
2023-05-03T06:27:32.521Z,8.42
2023-05-03T06:28:32.534Z,8.49
2023-05-03T06:29:32.487Z,8.64
2023-05-03T06:30:32.476Z,8.85
2023-05-03T06:31:32.469Z,9.04
2023-05-03T06:32:32.455Z,9.21
2023-05-03T06:33:32.431Z,9.28
2023-05-03T06:34:32.410Z,9.37
2023-05-03T06:35:32.390Z,9.55
2023-05-03T06:36:32.374Z,9.76
2023-05-03T06:37:32.359Z,9.95
2023-05-03T06:38:32.373Z,10.13
2023-05-03T06:39:32.342Z,10.38
2023-05-03T06:40:32.355Z,10.54
2023-05-03T06:41:32.316Z,10.64
2023-05-03T06:42:32.312Z,10.75
2023-05-03T06:43:32.315Z,10.86
2023-05-03T06:44:32.286Z,10.92
2023-05-03T06:45:32.258Z,10.97
2023-05-03T06:46:32.308Z,11.05
2023-05-03T06:47:32.257Z,11.12
2023-05-03T06:48:32.291Z,11.17
2023-05-03T06:49:32.206Z,11.26
2023-05-03T06:50:32.196Z,11.30
2023-05-03T06:51:32.182Z,11.41
2023-05-03T06:52:32.169Z,11.55
2023-05-03T06:53:32.162Z,11.72
2023-05-03T06:54:32.153Z,11.84
2023-05-03T06:55:32.132Z,11.97
2023-05-03T06:56:32.118Z,12.10
2023-05-03T06:57:32.110Z,12.12
2023-05-03T06:58:32.119Z,12.27
2023-05-03T06:59:32.090Z,12.36
2023-05-03T07:00:32.089Z,12.50
2023-05-03T07:01:32.110Z,12.60
2023-05-03T07:02:32.096Z,12.67
2023-05-03T07:03:32.199Z,12.83
2023-05-03T07:04:32.024Z,13.09
2023-05-03T07:05:32.008Z,13.41
2023-05-03T07:06:40.672Z,13.68
2023-05-03T07:07:32.969Z,13.93
2023-05-03T07:08:31.985Z,14.15
2023-05-03T07:09:42.754Z,14.41
2023-05-03T07:10:32.941Z,14.58
2023-05-03T07:11:31.972Z,14.77
2023-05-03T07:12:31.920Z,14.96
2023-05-03T07:13:31.899Z,15.15
2023-05-03T07:14:31.897Z,15.14
2023-05-03T07:15:31.949Z,15.25
2023-05-03T07:16:31.913Z,15.47
2023-05-03T07:17:31.893Z,15.64
2023-05-03T07:18:31.846Z,15.77
2023-05-03T07:19:31.811Z,15.97
2023-05-03T07:20:31.810Z,16.09
2023-05-03T07:21:31.793Z,16.04
2023-05-03T07:22:31.785Z,15.94
2023-05-03T07:23:31.778Z,15.79
2023-05-03T07:24:31.760Z,15.62
2023-05-03T07:25:31.887Z,15.43
2023-05-03T07:26:31.717Z,15.27
2023-05-03T07:27:31.725Z,15.14
2023-05-03T07:28:31.717Z,14.99
2023-05-03T07:29:31.681Z,14.85
2023-05-03T07:30:31.669Z,14.73
2023-05-03T07:31:31.657Z,14.62
2023-05-03T07:32:31.717Z,14.51
2023-05-03T07:33:31.704Z,14.44
2023-05-03T07:34:31.620Z,14.40
2023-05-03T07:35:31.612Z,14.59
2023-05-03T07:36:31.601Z,15.04
2023-05-03T07:37:31.588Z,15.36
2023-05-03T07:38:31.582Z,15.76
2023-05-03T07:39:31.547Z,16.23
2023-05-03T07:40:31.537Z,16.72
2023-05-03T07:41:31.525Z,16.87
2023-05-03T07:42:31.516Z,16.87
2023-05-03T07:43:31.520Z,16.83
2023-05-03T07:44:31.641Z,16.74
2023-05-03T07:45:31.579Z,16.65
2023-05-03T07:46:31.466Z,16.53
2023-05-03T07:47:31.473Z,16.41
2023-05-03T07:48:31.453Z,16.29
2023-05-03T07:49:31.419Z,16.15
2023-05-03T07:50:31.412Z,16.16
2023-05-03T07:51:31.389Z,15.92
2023-05-03T07:52:31.383Z,15.83
2023-05-03T07:53:31.392Z,15.82
2023-05-03T07:54:31.358Z,15.62
2023-05-03T07:55:31.365Z,15.62
2023-05-03T07:56:31.336Z,15.46
2023-05-03T07:57:31.317Z,15.39
2023-05-03T07:58:40.118Z,15.36
2023-05-03T07:59:32.301Z,15.33
2023-05-03T08:00:31.286Z,15.29
2023-05-03T08:01:31.258Z,15.25
2023-05-03T08:02:31.354Z,15.22
2023-05-03T08:03:31.458Z,15.31
2023-05-03T08:04:31.416Z,15.52
2023-05-03T08:05:31.246Z,15.86
2023-05-03T08:06:31.324Z,15.86
2023-05-03T08:07:31.203Z,16.36
2023-05-03T08:08:31.175Z,16.68
2023-05-03T08:09:31.219Z,16.74
2023-05-03T08:10:31.170Z,16.78
2023-05-03T08:11:31.149Z,16.76
2023-05-03T08:12:31.125Z,16.74
2023-05-03T08:13:31.110Z,16.69
2023-05-03T08:14:31.121Z,16.68
2023-05-03T08:15:31.161Z,16.66
2023-05-03T08:16:31.250Z,16.68
2023-05-03T08:17:31.111Z,16.91
2023-05-03T08:18:31.053Z,17.33
2023-05-03T08:19:31.068Z,17.33
2023-05-03T08:20:31.020Z,17.51
2023-05-03T08:21:31.019Z,17.54
2023-05-03T08:22:30.995Z,17.49
2023-05-03T08:23:30.991Z,17.44
2023-05-03T08:24:31.008Z,17.36
2023-05-03T08:25:30.951Z,17.34
2023-05-03T08:26:30.947Z,17.20
2023-05-03T08:27:30.925Z,17.19
2023-05-03T08:28:30.920Z,17.05
2023-05-03T08:29:30.924Z,17.01
2023-05-03T08:30:30.909Z,17.01
2023-05-03T08:31:30.909Z,16.91
2023-05-03T08:32:30.883Z,16.93
2023-05-03T08:33:30.845Z,16.99
2023-05-03T08:34:30.854Z,17.22
2023-05-03T08:35:30.826Z,17.23
2023-05-03T08:36:30.810Z,17.20
2023-05-03T08:37:30.799Z,17.19
2023-05-03T08:38:30.786Z,17.15
2023-05-03T08:39:30.785Z,17.12
2023-05-03T08:40:30.758Z,17.11
2023-05-03T08:41:31.078Z,17.08
2023-05-03T08:42:30.735Z,17.08
2023-05-03T08:43:30.721Z,17.05
2023-05-03T08:44:30.719Z,17.05
2023-05-03T08:45:30.692Z,17.05
2023-05-03T08:46:30.875Z,17.05
2023-05-03T08:47:30.709Z,17.04
2023-05-03T08:48:31.246Z,17.04
2023-05-03T08:49:30.646Z,17.02
2023-05-03T08:50:30.624Z,17.05
2023-05-03T08:51:30.606Z,17.05
2023-05-03T08:52:30.602Z,17.06
2023-05-03T08:53:30.577Z,17.15
2023-05-03T08:54:30.605Z,17.26
2023-05-03T08:55:30.551Z,17.26
2023-05-03T08:56:30.561Z,17.67
2023-05-03T08:57:30.521Z,17.67
2023-05-03T08:58:30.513Z,17.90
2023-05-03T08:59:30.515Z,17.97
2023-05-03T09:00:30.499Z,18.01
2023-05-03T09:01:30.541Z,18.07
2023-05-03T09:02:30.856Z,18.16
2023-05-03T09:03:30.532Z,18.16
2023-05-03T09:04:30.516Z,18.29
2023-05-03T09:05:30.428Z,18.35
2023-05-03T09:06:30.450Z,18.38
2023-05-03T09:07:30.396Z,18.44
2023-05-03T09:08:30.424Z,18.43
2023-05-03T09:09:30.382Z,18.52
2023-05-03T09:10:30.359Z,18.62
2023-05-03T09:11:30.357Z,18.73
2023-05-03T09:12:30.339Z,18.83
2023-05-03T09:13:30.334Z,18.92
2023-05-03T09:14:30.319Z,18.92
2023-05-03T09:15:30.314Z,18.99
2023-05-03T09:16:30.355Z,19.00
2023-05-03T09:17:30.389Z,19.04
2023-05-03T09:18:30.257Z,19.08
2023-05-03T09:19:30.254Z,19.11
2023-05-03T09:20:30.225Z,19.15
2023-05-03T09:21:30.253Z,19.34
2023-05-03T09:22:30.209Z,19.52
2023-05-03T09:23:30.202Z,19.85
2023-05-03T09:24:30.200Z,20.25
2023-05-03T09:25:30.160Z,20.32
2023-05-03T09:26:30.209Z,20.36
2023-05-03T09:27:30.138Z,20.37
2023-05-03T09:28:30.127Z,20.60
2023-05-03T09:29:30.212Z,20.88
2023-05-03T09:30:30.101Z,20.90
2023-05-03T09:31:30.126Z,21.76
2023-05-03T09:32:30.109Z,22.29
2023-05-03T09:33:30.066Z,22.81
2023-05-03T09:34:30.081Z,23.32
2023-05-03T09:35:30.056Z,23.77
2023-05-03T09:36:30.052Z,23.78
2023-05-03T09:37:29.994Z,24.18
2023-05-03T09:38:29.993Z,24.55
2023-05-03T09:39:29.995Z,25.22
2023-05-03T09:40:29.974Z,25.53
2023-05-03T09:41:29.963Z,25.83
2023-05-03T09:42:29.956Z,26.16
2023-05-03T09:43:29.926Z,26.21
2023-05-03T09:44:29.928Z,26.21
2023-05-03T09:45:29.894Z,26.18
2023-05-03T09:46:30.015Z,25.98
2023-05-03T09:47:32.099Z,25.98
2023-05-03T09:48:29.859Z,25.88
2023-05-03T09:49:29.867Z,26.09
2023-05-03T09:50:29.848Z,26.10
2023-05-03T09:51:29.836Z,26.45
2023-05-03T09:52:29.821Z,26.44
2023-05-03T09:53:29.786Z,26.26
2023-05-03T09:54:29.812Z,26.21
2023-05-03T09:55:29.779Z,26.19
2023-05-03T09:56:29.760Z,26.03
2023-05-03T09:57:29.749Z,25.85
2023-05-03T09:58:29.740Z,25.69
2023-05-03T09:59:29.726Z,25.69
2023-05-03T10:00:29.706Z,25.33
2023-05-03T10:01:29.709Z,25.14
2023-05-03T10:02:29.697Z,25.14
2023-05-03T10:03:29.690Z,24.86
2023-05-03T10:04:29.719Z,24.88
2023-05-03T10:05:29.638Z,24.78
2023-05-03T10:06:29.631Z,24.68
2023-05-03T10:07:29.611Z,24.55
2023-05-03T10:08:29.596Z,24.40
2023-05-03T10:09:29.601Z,24.42
2023-05-03T10:10:29.570Z,24.29
2023-05-03T10:11:29.561Z,24.29
2023-05-03T10:12:29.542Z,24.86
2023-05-03T10:13:29.532Z,24.88
2023-05-03T10:14:29.534Z,25.93
2023-05-03T10:15:29.679Z,26.47
2023-05-03T10:16:29.517Z,26.48
2023-05-03T10:17:46.120Z,27.40
2023-05-03T10:18:30.484Z,27.42
2023-05-03T10:19:29.472Z,27.86
2023-05-03T10:20:29.439Z,28.23
2023-05-03T10:21:29.438Z,28.57
2023-05-03T10:22:29.420Z,29.22
2023-05-03T10:23:29.413Z,29.22
2023-05-03T10:24:29.412Z,29.73
2023-05-03T10:25:29.398Z,29.94
2023-05-03T10:26:29.364Z,29.94
2023-05-03T10:27:29.390Z,29.71
2023-05-03T10:28:29.396Z,29.24
2023-05-03T10:29:29.326Z,29.12
2023-05-03T10:30:29.299Z,29.16
2023-05-03T10:31:29.293Z,29.13
2023-05-03T10:32:29.330Z,29.13
2023-05-03T10:33:29.269Z,29.17
2023-05-03T10:34:29.259Z,29.31
2023-05-03T10:35:29.243Z,29.51
2023-05-03T10:36:38.436Z,29.75
2023-05-03T10:37:30.213Z,29.75
2023-05-03T10:38:29.193Z,29.95
2023-05-03T10:39:29.204Z,30.25
2023-05-03T10:40:29.167Z,30.39
2023-05-03T10:41:29.170Z,30.54
2023-05-03T10:42:29.144Z,30.66
2023-05-03T10:43:29.128Z,30.80
2023-05-03T10:44:29.125Z,30.92
2023-05-03T10:45:29.112Z,31.02
2023-05-03T10:46:29.209Z,31.03
2023-05-03T10:47:29.137Z,31.10
2023-05-03T10:48:29.065Z,31.09
2023-05-03T10:49:29.079Z,31.10
2023-05-03T10:50:29.172Z,31.03
2023-05-03T10:51:29.070Z,31.00
2023-05-03T10:52:29.014Z,31.03
2023-05-03T10:53:29.007Z,30.92
2023-05-03T10:54:28.997Z,30.92
2023-05-03T10:55:29.026Z,30.75
2023-05-03T10:56:28.962Z,30.66
2023-05-03T10:57:28.961Z,30.55
2023-05-03T10:58:28.933Z,30.43
2023-05-03T10:59:28.958Z,30.28
2023-05-03T11:00:28.997Z,30.15
2023-05-03T11:01:28.931Z,30.18
2023-05-03T11:02:28.924Z,29.90
2023-05-03T11:03:28.865Z,29.78
2023-05-03T11:04:31.065Z,29.68
2023-05-03T11:05:28.843Z,29.66
2023-05-03T11:06:28.862Z,29.47
2023-05-03T11:07:28.820Z,29.42
2023-05-03T11:08:28.807Z,29.39
2023-05-03T11:09:28.822Z,29.27
2023-05-03T11:10:28.780Z,29.23
2023-05-03T11:11:28.768Z,29.22
2023-05-03T11:12:28.752Z,29.13
2023-05-03T11:13:28.762Z,29.16
2023-05-03T11:14:28.732Z,29.05
2023-05-03T11:15:28.721Z,29.04
2023-05-03T11:16:28.890Z,29.01
2023-05-03T11:17:28.728Z,29.01
2023-05-03T11:18:28.687Z,28.96
2023-05-03T11:19:28.690Z,28.96
2023-05-03T11:20:28.673Z,28.91
2023-05-03T11:21:28.660Z,28.88
2023-05-03T11:22:28.611Z,28.85
2023-05-03T11:23:28.613Z,28.84
2023-05-03T11:24:28.611Z,28.81
2023-05-03T11:25:28.582Z,28.81
2023-05-03T11:26:28.578Z,28.79
2023-05-03T11:27:28.573Z,28.79
2023-05-03T11:28:28.571Z,28.81
2023-05-03T11:29:28.550Z,28.82
2023-05-03T11:30:28.537Z,28.85
2023-05-03T11:31:28.557Z,28.85
2023-05-03T11:32:28.503Z,28.85
2023-05-03T11:33:28.493Z,28.89
2023-05-03T11:34:28.477Z,28.91
2023-05-03T11:35:28.454Z,28.93
2023-05-03T11:36:28.442Z,28.94
2023-05-03T11:37:28.434Z,28.94
2023-05-03T11:38:28.417Z,28.94
2023-05-03T11:39:28.436Z,28.96
2023-05-03T11:40:28.382Z,28.96
2023-05-03T11:41:28.410Z,28.97
2023-05-03T11:42:28.374Z,28.98
2023-05-03T11:43:28.352Z,28.97
2023-05-03T11:44:28.349Z,28.96
2023-05-03T11:45:28.334Z,28.96
2023-05-03T11:46:28.500Z,28.96
2023-05-03T11:47:28.322Z,28.96
2023-05-03T11:48:28.434Z,28.98
2023-05-03T11:49:28.319Z,28.97
2023-05-03T11:50:28.266Z,28.98
2023-05-03T11:51:28.257Z,29.02
2023-05-03T11:52:28.247Z,29.04
2023-05-03T11:53:28.227Z,29.04
2023-05-03T11:54:28.312Z,29.01
2023-05-03T11:55:28.224Z,29.04
2023-05-03T11:56:28.172Z,29.04
2023-05-03T11:57:28.177Z,29.04
2023-05-03T11:58:28.174Z,29.05
2023-05-03T11:59:28.163Z,29.04
2023-05-03T12:00:28.141Z,29.05
2023-05-03T12:01:28.221Z,29.07
2023-05-03T12:02:28.267Z,29.07
2023-05-03T12:03:31.184Z,29.10
2023-05-03T12:04:28.308Z,29.10
2023-05-03T12:05:28.259Z,29.13
2023-05-03T12:06:28.300Z,29.13
2023-05-03T12:07:28.156Z,29.16
2023-05-03T12:08:29.673Z,29.14
2023-05-03T12:09:29.228Z,29.16
2023-05-03T12:10:29.740Z,29.16
2023-05-03T12:11:30.777Z,29.14
2023-05-03T12:12:31.635Z,29.16
2023-05-03T12:13:29.829Z,29.17
2023-05-03T12:14:28.985Z,29.14
2023-05-03T12:15:29.656Z,29.14
2023-05-03T12:16:28.064Z,28.91
2023-05-03T12:17:28.286Z,28.30
2023-05-03T12:18:28.015Z,27.95
2023-05-03T12:19:31.023Z,27.63
2023-05-03T12:21:17.457Z,27.27
2023-05-03T12:21:31.452Z,27.07
2023-05-03T12:22:30.384Z,26.92
2023-05-03T12:23:27.995Z,26.77
2023-05-03T12:24:28.948Z,26.59
2023-05-03T12:25:29.836Z,26.43
2023-05-03T12:26:28.825Z,26.44
2023-05-03T12:27:28.355Z,26.21
2023-05-03T12:28:27.824Z,26.09
2023-05-03T12:29:29.516Z,25.96
2023-05-03T12:30:29.033Z,25.88
2023-05-03T12:31:29.200Z,25.87
2023-05-03T12:32:27.829Z,25.65
2023-05-03T12:33:28.468Z,25.54
2023-05-03T12:34:35.061Z,25.43
2023-05-03T12:35:29.136Z,25.32
2023-05-03T12:36:31.287Z,25.22
2023-05-03T12:37:27.963Z,25.16
2023-05-03T12:38:30.668Z,25.14
2023-05-03T12:39:27.747Z,25.10
2023-05-03T12:40:34.154Z,25.06
2023-05-03T12:42:04.699Z,25.01
2023-05-03T12:42:28.837Z,24.95
2023-05-03T12:43:27.651Z,24.93
2023-05-03T12:44:29.056Z,24.93
2023-05-03T12:45:28.586Z,24.92
2023-05-03T12:46:34.587Z,24.93
2023-05-03T12:47:29.320Z,24.92
2023-05-03T12:48:27.722Z,24.91
2023-05-03T12:49:27.701Z,24.95
2023-05-03T12:50:31.271Z,24.96
2023-05-03T12:51:27.693Z,24.98
2023-05-03T12:53:27.586Z,24.88
2023-05-03T12:54:27.577Z,24.84
2023-05-03T12:55:29.223Z,24.85
2023-05-03T12:56:32.168Z,24.77
2023-05-03T12:57:30.511Z,24.77
2023-05-03T12:58:51.473Z,24.73
2023-05-03T12:59:41.069Z,24.69
2023-05-03T13:00:35.125Z,24.60
2023-05-03T13:03:32.543Z,24.54
2023-05-03T13:05:35.025Z,24.48
2023-05-03T13:06:28.511Z,24.47
2023-05-03T13:07:29.200Z,24.47
2023-05-03T13:08:33.456Z,24.47
2023-05-03T13:09:38.008Z,24.57